Time;durP1;ratioP1;P1;durP2;ratioP2;P2;SDS_P1;SDS_P2;PMS_P1;PMS_P2;Temp;Humidity;BMP_temperature;BMP_pressure;BME280_temperature;BME280_humidity;BME280_pressure;Samples;Min_cycle;Max_cycle;Signal;HPM_P1;HPM_P2
2021/12/12 00:01:12;;;;;;;93.38;40.47;;;4.00;99.90;;;;;;5005229;28;20050;-70
2021/12/12 00:03:47;;;;;;;84.27;40.73;;;4.00;99.90;;;;;;4986899;28;273326;-70
2021/12/12 00:06:18;;;;;;;85.38;39.08;;;4.00;99.90;;;;;;4998096;28;20046;-70
2021/12/12 00:08:48;;;;;;;79.65;38.13;;;4.00;99.90;;;;;;5007403;28;268248;-70
2021/12/12 00:11:17;;;;;;;86.97;40.17;;;4.00;99.90;;;;;;5020685;28;20515;-70
2021/12/12 00:14:00;;;;;;;82.30;41.03;;;4.00;99.90;;;;;;5005861;28;252859;-70
2021/12/12 00:16:28;;;;;;;85.00;40.83;;;4.00;99.90;;;;;;5020770;28;20064;-70
2021/12/12 00:18:55;;;;;;;86.38;39.88;;;4.00;99.90;;;;;;5008059;28;116229;-70
2021/12/12 00:21:25;;;;;;;85.40;39.60;;;4.00;99.90;;;;;;5023178;28;20759;-70
2021/12/12 00:23:51;;;;;;;79.22;39.80;;;4.00;99.90;;;;;;5009824;28;250450;-70
2021/12/12 00:26:18;;;;;;;77.70;38.63;;;4.00;99.90;;;;;;5022127;28;20446;-70
2021/12/12 00:28:44;;;;;;;80.75;41.50;;;4.00;99.90;;;;;;5007721;28;270582;-70
2021/12/12 00:31:16;;;;;;;74.72;39.85;;;4.10;99.90;;;;;;5023602;28;20499;-70
2021/12/12 00:33:47;;;;;;;78.07;38.85;;;4.10;99.90;;;;;;5004432;28;263439;-71
2021/12/12 00:36:17;;;;;;;74.63;36.45;;;4.10;99.90;;;;;;5037448;28;20045;-70
2021/12/12 00:39:05;;;;;;;72.88;35.85;;;4.10;99.90;;;;;;5001373;28;265434;-70
2021/12/12 00:41:59;;;;;;;79.53;37.65;;;4.10;99.90;;;;;;5013249;28;20064;-70
2021/12/12 00:44:27;;;;;;;80.15;39.92;;;4.10;99.90;;;;;;5002236;28;74315;-70
2021/12/12 00:47:01;;;;;;;78.82;39.65;;;4.10;99.90;;;;;;5013960;28;20490;-71
2021/12/12 00:49:28;;;;;;;75.82;38.33;;;4.10;99.90;;;;;;5014890;28;269446;-70
2021/12/12 00:51:55;;;;;;;73.72;37.42;;;4.10;99.90;;;;;;5018709;28;20061;-70
2021/12/12 00:54:30;;;;;;;74.78;36.30;;;4.10;99.90;;;;;;5012740;28;257989;-70
2021/12/12 00:56:59;;;;;;;71.55;37.67;;;4.10;99.90;;;;;;5029441;28;20057;-70
2021/12/12 00:59:26;;;;;;;80.60;37.83;;;4.10;99.90;;;;;;5014068;28;29063;-70
2021/12/12 01:01:53;;;;;;;68.30;35.88;;;4.10;99.90;;;;;;5019910;28;20088;-70
2021/12/12 01:04:29;;;;;;;72.57;37.00;;;4.10;99.90;;;;;;4986301;28;144253;-70
2021/12/12 01:06:58;;;;;;;75.07;37.90;;;4.10;99.90;;;;;;5022411;28;20049;-70
2021/12/12 01:09:28;;;;;;;76.32;38.47;;;4.10;99.90;;;;;;5007109;28;210428;-70
2021/12/12 01:11:59;;;;;;;74.82;37.17;;;4.20;99.90;;;;;;5038261;28;20058;-70
2021/12/12 01:14:31;;;;;;;73.32;36.55;;;4.20;99.90;;;;;;4994701;28;110098;-70
2021/12/12 01:17:00;;;;;;;77.53;37.25;;;4.20;99.90;;;;;;5031711;28;20053;-70
2021/12/12 01:19:37;;;;;;;73.03;37.95;;;4.20;99.90;;;;;;5008600;28;243258;-71
2021/12/12 01:22:09;;;;;;;73.28;35.33;;;4.20;99.90;;;;;;5020405;28;20045;-70
2021/12/12 01:24:40;;;;;;;72.38;33.65;;;4.20;99.90;;;;;;4999124;28;141383;-70
2021/12/12 01:27:08;;;;;;;72.47;34.38;;;4.20;99.90;;;;;;5015284;28;20533;-70
2021/12/12 01:29:34;;;;;;;72.90;36.15;;;4.20;99.90;;;;;;5010680;28;249007;-70
2021/12/12 01:32:04;;;;;;;69.65;34.65;;;4.20;99.90;;;;;;5002858;28;20049;-70
2021/12/12 01:34:31;;;;;;;62.88;32.92;;;4.20;99.90;;;;;;5000045;28;249208;-70
2021/12/12 01:37:12;;;;;;;72.88;35.58;;;4.30;99.90;;;;;;5023942;28;20056;-70
2021/12/12 01:39:43;;;;;;;69.20;35.60;;;4.30;99.90;;;;;;5007669;28;233546;-70
2021/12/12 01:42:16;;;;;;;73.55;35.65;;;4.30;99.90;;;;;;5025813;28;20076;-70
2021/12/12 01:44:51;;;;;;;73.47;35.38;;;4.30;99.90;;;;;;5005364;28;265719;-70
2021/12/12 01:47:41;;;;;;;67.13;32.58;;;4.30;99.90;;;;;;5017157;28;20065;-70
2021/12/12 01:50:14;;;;;;;71.20;32.80;;;4.30;99.90;;;;;;4996548;28;87605;-70
2021/12/12 01:52:42;;;;;;;74.47;33.50;;;4.30;99.90;;;;;;5019287;28;20056;-70
2021/12/12 01:55:26;;;;;;;74.28;37.13;;;4.30;99.90;;;;;;4998575;28;39355;-70
2021/12/12 01:57:57;;;;;;;67.70;33.42;;;4.30;99.90;;;;;;5022948;28;20588;-70
2021/12/12 02:00:50;;;;;;;71.70;35.40;;;4.30;99.90;;;;;;4992061;28;139742;-70
2021/12/12 02:03:20;;;;;;;69.20;34.33;;;4.30;99.90;;;;;;5018301;28;20054;-70
2021/12/12 02:05:47;;;;;;;71.32;35.30;;;4.30;99.90;;;;;;4986551;28;245642;-69
2021/12/12 02:08:16;;;;;;;77.82;35.30;;;4.30;99.90;;;;;;5025799;28;20060;-69
2021/12/12 02:10:51;;;;;;;71.20;35.20;;;4.30;99.90;;;;;;5012029;28;34592;-69
2021/12/12 02:13:20;;;;;;;75.57;35.60;;;4.30;99.90;;;;;;5026359;28;20517;-70
2021/12/12 02:15:49;;;;;;;73.32;37.28;;;4.30;99.90;;;;;;5005460;28;183707;-69
2021/12/12 02:18:25;;;;;;;71.63;34.13;;;4.40;99.90;;;;;;5008203;28;20407;-69
2021/12/12 02:21:13;;;;;;;76.97;33.95;;;4.40;99.90;;;;;;5024367;28;194868;-70
2021/12/12 02:37:31;;;;;;;66.60;30.05;;;4.40;99.90;;;;;;5022385;28;20048;-70
2021/12/12 02:39:59;;;;;;;62.47;30.48;;;4.50;99.90;;;;;;5008476;28;272624;-70
2021/12/12 02:42:25;;;;;;;65.68;30.52;;;4.50;99.90;;;;;;5022601;28;20052;-70
2021/12/12 02:44:57;;;;;;;61.78;30.45;;;4.50;99.90;;;;;;5005670;28;261912;-69
2021/12/12 02:47:32;;;;;;;65.90;29.70;;;4.50;99.90;;;;;;5020252;28;20065;-69
2021/12/12 02:50:22;;;;;;;63.05;29.50;;;4.60;99.90;;;;;;5001018;28;55517;-70
2021/12/12 02:52:55;;;;;;;61.35;28.02;;;4.60;99.90;;;;;;5028868;28;20513;-70
2021/12/12 02:55:26;;;;;;;69.07;31.70;;;4.60;99.90;;;;;;5005688;28;253224;-70
2021/12/12 02:57:55;;;;;;;57.58;28.95;;;4.60;99.90;;;;;;5005461;28;20054;-70
2021/12/12 03:00:24;;;;;;;68.28;31.45;;;4.60;99.90;;;;;;5020054;28;257925;-70
2021/12/12 03:02:57;;;;;;;72.88;28.67;;;4.60;99.90;;;;;;5011203;28;20053;-70
2021/12/12 03:05:26;;;;;;;63.22;31.08;;;4.60;99.90;;;;;;5003198;28;157763;-70
2021/12/12 03:07:53;;;;;;;70.85;31.77;;;4.60;99.90;;;;;;5025097;28;20049;-70
2021/12/12 03:10:25;;;;;;;67.78;30.58;;;4.70;99.90;;;;;;5001078;28;120867;-70
2021/12/12 03:12:51;;;;;;;58.33;28.70;;;4.60;99.90;;;;;;5024261;28;20521;-70
2021/12/12 03:15:24;;;;;;;55.75;27.27;;;4.70;99.90;;;;;;4997710;28;186396;-70
2021/12/12 03:17:57;;;;;;;64.85;28.20;;;4.70;99.90;;;;;;5020983;28;20053;-70
2021/12/12 03:20:27;;;;;;;63.33;28.85;;;4.70;99.90;;;;;;4996591;28;228650;-71
2021/12/12 03:23:02;;;;;;;49.80;24.45;;;4.70;99.90;;;;;;5023961;28;20518;-70
2021/12/12 03:25:31;;;;;;;56.55;26.17;;;4.70;99.90;;;;;;5021986;28;248168;-70
2021/12/12 03:27:57;;;;;;;57.78;28.50;;;4.70;99.90;;;;;;5025154;28;20064;-70
2021/12/12 03:30:24;;;;;;;64.88;27.98;;;4.80;99.90;;;;;;4996709;28;22425;-70
2021/12/12 03:32:51;;;;;;;59.33;26.73;;;4.80;99.90;;;;;;5023398;28;20048;-71
2021/12/12 03:35:17;;;;;;;56.40;26.83;;;4.80;99.90;;;;;;5012992;28;73242;-71
2021/12/12 03:37:44;;;;;;;44.95;24.10;;;4.80;99.90;;;;;;5025640;28;20057;-71
2021/12/12 03:40:18;;;;;;;47.22;23.52;;;4.80;99.90;;;;;;5010970;28;233840;-70
2021/12/12 03:42:47;;;;;;;57.15;25.95;;;4.80;99.90;;;;;;5024388;28;20116;-70
2021/12/12 03:45:14;;;;;;;42.35;22.10;;;4.80;99.90;;;;;;4997217;28;176425;-71
2021/12/12 03:47:46;;;;;;;45.22;23.27;;;4.80;99.90;;;;;;5025384;28;20057;-70
2021/12/12 03:50:22;;;;;;;48.33;23.80;;;4.80;99.90;;;;;;5015003;28;25584;-70
2021/12/12 03:52:50;;;;;;;46.63;22.15;;;4.80;99.90;;;;;;5022999;28;20057;-70
2021/12/12 03:55:19;;;;;;;47.70;22.60;;;4.80;99.90;;;;;;5010699;28;141884;-71
2021/12/12 03:57:48;;;;;;;39.30;22.42;;;4.80;99.90;;;;;;5023905;28;20404;-70
2021/12/12 04:00:24;;;;;;;43.50;22.92;;;4.80;99.90;;;;;;5008454;28;120763;-70
2021/12/12 04:02:51;;;;;;;40.15;21.70;;;4.80;99.90;;;;;;5022473;28;20411;-70
2021/12/12 04:05:17;;;;;;;41.60;23.60;;;4.80;99.90;;;;;;5003038;28;271102;-70
2021/12/12 04:07:44;;;;;;;38.47;21.83;;;4.80;99.90;;;;;;5003249;28;20053;-70
2021/12/12 04:10:13;;;;;;;38.83;22.15;;;4.80;99.90;;;;;;5014682;28;26210;-70
2021/12/12 04:12:40;;;;;;;31.00;18.55;;;4.80;99.90;;;;;;5019903;28;20065;-70
2021/12/12 04:15:07;;;;;;;38.65;21.40;;;4.80;99.90;;;;;;5002623;28;24145;-70
2021/12/12 04:17:33;;;;;;;44.90;22.50;;;4.80;99.90;;;;;;5020139;28;20502;-70
2021/12/12 04:20:05;;;;;;;39.85;20.85;;;4.80;99.90;;;;;;5008526;28;189099;-70
2021/12/12 04:22:33;;;;;;;36.90;21.48;;;4.90;99.90;;;;;;5021962;28;20049;-70
2021/12/12 04:25:00;;;;;;;36.88;21.92;;;4.90;99.90;;;;;;5030071;28;20060;-70
2021/12/12 04:27:26;;;;;;;37.15;21.15;;;4.90;99.90;;;;;;5020264;28;20053;-71
2021/12/12 04:29:54;;;;;;;43.95;20.88;;;4.90;99.90;;;;;;5005967;28;117469;-70
2021/12/12 04:32:26;;;;;;;32.80;18.52;;;4.90;99.90;;;;;;5025547;28;20041;-70
2021/12/12 04:34:54;;;;;;;;;;;4.90;99.90;;;;;;4996149;28;213026;-72
2021/12/12 04:37:23;;;;;;;35.22;18.70;;;4.90;99.90;;;;;;5018641;28;19924;-70
2021/12/12 04:39:54;;;;;;;39.25;20.35;;;4.90;99.90;;;;;;5006108;28;125505;-70
2021/12/12 04:42:25;;;;;;;36.97;19.90;;;4.90;99.90;;;;;;5020557;28;20419;-70
2021/12/12 04:44:55;;;;;;;36.83;19.67;;;4.90;99.90;;;;;;5010935;28;144565;-70
2021/12/12 04:50:43;;;;;;;34.78;18.50;;;5.00;99.90;;;;;;5016793;28;265308;-70
2021/12/12 04:53:30;;;;;;;32.78;18.50;;;5.00;99.90;;;;;;5022630;28;20064;-71
2021/12/12 04:56:15;;;;;;;31.48;17.67;;;5.00;99.90;;;;;;5014624;28;20053;-71
2021/12/12 04:59:17;;;;;;;29.80;16.97;;;5.00;99.90;;;;;;4998927;28;312989;-70
2021/12/12 05:01:46;;;;;;;;;;;5.00;99.90;;;;;;5016250;28;20049;-70
2021/12/12 05:04:29;;;;;;;31.05;17.38;;;5.00;99.90;;;;;;4984828;28;250379;-69
2021/12/12 05:07:05;;;;;;;30.58;18.42;;;5.00;99.90;;;;;;5021989;28;20058;-70
2021/12/12 05:09:43;;;;;;;23.75;15.50;;;5.00;99.90;;;;;;5006453;28;189592;-70
2021/12/12 05:12:53;;;;;;;26.60;16.20;;;5.00;99.90;;;;;;5022093;28;20057;-70
2021/12/12 05:15:51;;;;;;;26.65;15.63;;;5.00;99.90;;;;;;4967205;28;195275;-70
2021/12/12 05:18:27;;;;;;;21.70;14.10;;;5.10;99.90;;;;;;4893756;29;20052;-70
2021/12/12 05:21:08;;;;;;;26.95;15.35;;;5.10;99.90;;;;;;4884594;29;20096;-70
2021/12/12 05:23:36;;;;;;;23.52;13.98;;;5.10;99.90;;;;;;4882679;29;107696;-70
2021/12/12 05:26:27;;;;;;;25.52;15.45;;;5.10;99.90;;;;;;4910543;29;20048;-70
2021/12/12 05:29:06;;;;;;;22.33;14.18;;;5.10;99.90;;;;;;4882535;29;68065;-70
2021/12/12 05:31:34;;;;;;;21.63;14.00;;;5.20;99.90;;;;;;4909645;29;20055;-69
2021/12/12 05:34:01;;;;;;;24.02;14.68;;;5.20;99.90;;;;;;4882644;29;42608;-70
2021/12/12 05:36:29;;;;;;;21.92;13.98;;;5.20;99.90;;;;;;4908564;29;20060;-70
2021/12/12 05:39:00;;;;;;;23.25;14.38;;;5.20;99.90;;;;;;4895902;29;60786;-70
2021/12/12 05:41:26;;;;;;;22.13;13.55;;;5.20;99.90;;;;;;4912928;29;20056;-70
2021/12/12 05:43:55;;;;;;;22.70;14.00;;;5.30;99.90;;;;;;4895257;29;208858;-70
2021/12/12 05:46:23;;;;;;;23.42;14.25;;;5.30;99.90;;;;;;4914576;29;20060;-70
2021/12/12 05:48:51;;;;;;;26.92;14.55;;;5.30;99.90;;;;;;4876908;29;203773;-70
2021/12/12 05:51:19;;;;;;;26.67;15.25;;;5.30;99.90;;;;;;4914892;28;20055;-70
2021/12/12 05:53:48;;;;;;;26.90;14.98;;;5.30;99.90;;;;;;4940771;28;57236;-69
2021/12/12 05:56:15;;;;;;;26.67;14.73;;;5.30;99.90;;;;;;5020817;28;20084;-70
2021/12/12 05:58:41;;;;;;;25.27;14.23;;;5.30;99.90;;;;;;5010388;28;246865;-70
2021/12/12 06:01:10;;;;;;;28.60;15.80;;;5.30;99.90;;;;;;5018523;28;20054;-70
2021/12/12 06:03:40;;;;;;;25.35;14.95;;;5.30;99.90;;;;;;4986841;28;275789;-69
2021/12/12 06:06:18;;;;;;;23.67;15.40;;;5.40;99.90;;;;;;4991300;28;20061;-70
2021/12/12 06:08:46;;;;;;;24.35;14.48;;;5.40;99.90;;;;;;5007882;28;273550;-70
2021/12/12 06:11:15;;;;;;;22.75;14.52;;;5.40;99.90;;;;;;5007700;28;20057;-70
2021/12/12 06:13:41;;;;;;;24.75;14.80;;;5.40;99.90;;;;;;5003590;28;265139;-70
2021/12/12 06:16:18;;;;;;;22.65;12.90;;;5.40;99.90;;;;;;5020196;28;20053;-70
2021/12/12 06:18:59;;;;;;;22.58;13.43;;;5.40;99.90;;;;;;4982996;28;254326;-70
2021/12/12 06:21:26;;;;;;;24.58;13.63;;;5.40;99.90;;;;;;5012047;28;20054;-70
2021/12/12 06:23:53;;;;;;;25.70;14.77;;;5.50;99.90;;;;;;5002133;28;260658;-70
2021/12/12 06:26:22;;;;;;;23.05;14.55;;;5.50;99.90;;;;;;5032861;28;20053;-69
2021/12/12 06:28:49;;;;;;;26.95;15.85;;;5.50;99.90;;;;;;5003504;28;272019;-70
2021/12/12 06:31:16;;;;;;;26.98;16.48;;;5.50;99.90;;;;;;5018440;28;20057;-70
2021/12/12 06:33:42;;;;;;;27.70;15.50;;;5.50;99.90;;;;;;5005260;28;252302;-69
2021/12/12 06:36:11;;;;;;;29.55;17.80;;;5.50;99.90;;;;;;5021265;28;20391;-70
2021/12/12 06:38:40;;;;;;;28.57;17.07;;;5.50;99.90;;;;;;5002529;28;267322;-69
2021/12/12 06:41:08;;;;;;;24.48;14.73;;;5.50;99.90;;;;;;5022436;28;20050;-69
2021/12/12 06:43:35;;;;;;;26.30;16.48;;;5.50;99.90;;;;;;5002087;28;261762;-70
2021/12/12 06:46:04;;;;;;;28.63;15.85;;;5.60;99.90;;;;;;5016972;28;20045;-70
2021/12/12 06:48:30;;;;;;;26.85;16.35;;;5.60;99.90;;;;;;4994602;28;265224;-70
2021/12/12 06:50:57;;;;;;;29.23;17.10;;;5.60;99.90;;;;;;5033909;28;20046;-70
2021/12/12 06:53:25;;;;;;;24.25;15.40;;;5.60;99.90;;;;;;5022370;28;20061;-69
2021/12/12 06:55:53;;;;;;;24.92;15.13;;;5.60;99.90;;;;;;5030145;28;45161;-70
2021/12/12 06:58:20;;;;;;;27.52;16.50;;;5.70;99.90;;;;;;5024746;28;20068;-69
2021/12/12 07:00:52;;;;;;;26.42;14.93;;;5.60;99.90;;;;;;4997489;28;82501;-69
2021/12/12 07:03:19;;;;;;;23.58;14.77;;;5.70;99.90;;;;;;5023827;28;20054;-70
2021/12/12 07:05:47;;;;;;;27.33;15.70;;;5.70;99.90;;;;;;4985622;28;197414;-70
2021/12/12 07:08:16;;;;;;;24.30;15.27;;;5.70;99.90;;;;;;5027430;28;20068;-71
2021/12/12 07:10:43;;;;;;;23.83;14.15;;;5.70;99.90;;;;;;4999046;28;147518;-69
2021/12/12 07:13:10;;;;;;;28.15;16.33;;;5.70;99.90;;;;;;5018669;28;20053;-70
2021/12/12 07:15:49;;;;;;;25.75;15.55;;;5.80;99.90;;;;;;5010036;28;138519;-70
2021/12/12 07:18:19;;;;;;;24.23;14.60;;;5.70;99.90;;;;;;5037252;28;20057;-70
2021/12/12 07:20:52;;;;;;;21.25;13.50;;;5.70;99.90;;;;;;5010439;28;214398;-70
2021/12/12 07:23:19;;;;;;;23.65;14.38;;;5.80;99.90;;;;;;5025140;28;20068;-70
2021/12/12 07:25:46;;;;;;;24.13;14.65;;;5.80;99.90;;;;;;5005343;28;256170;-71
2021/12/12 07:28:14;;;;;;;22.38;14.20;;;5.80;99.90;;;;;;5019267;28;20060;-71
2021/12/12 07:30:41;;;;;;;25.58;15.00;;;5.80;99.90;;;;;;5010515;28;194660;-70
2021/12/12 07:33:09;;;;;;;24.73;14.75;;;5.80;99.90;;;;;;5019663;28;20046;-70
2021/12/12 07:35:38;;;;;;;26.20;15.45;;;5.90;99.90;;;;;;5009669;28;219927;-70
2021/12/12 07:38:10;;;;;;;24.60;15.27;;;5.90;99.90;;;;;;5023459;28;20510;-70
2021/12/12 07:40:36;;;;;;;25.80;14.27;;;5.90;99.90;;;;;;5017546;28;53721;-70
2021/12/12 07:43:04;;;;;;;24.40;14.40;;;5.90;99.90;;;;;;5023667;28;20076;-70
2021/12/12 07:45:32;;;;;;;25.40;15.38;;;5.90;99.90;;;;;;5009602;28;264793;-70
2021/12/12 07:47:58;;;;;;;27.77;15.98;;;5.90;99.90;;;;;;5026333;28;20072;-70
2021/12/12 07:50:27;;;;;;;26.95;16.38;;;6.00;99.90;;;;;;5022855;28;265337;-71
2021/12/12 07:52:55;;;;;;;28.58;16.73;;;6.00;99.90;;;;;;5024151;28;20053;-70
2021/12/12 07:55:22;;;;;;;28.23;16.05;;;6.00;99.90;;;;;;4979099;28;83444;-70
2021/12/12 07:57:48;;;;;;;26.30;15.63;;;6.00;99.90;;;;;;5025660;28;20051;-70
2021/12/12 08:00:20;;;;;;;27.42;15.80;;;6.10;99.90;;;;;;5011781;28;150532;-71
2021/12/12 08:02:48;;;;;;;30.55;16.17;;;6.10;99.90;;;;;;5040817;28;20521;-71
2021/12/12 08:05:16;;;;;;;31.17;17.08;;;6.10;99.90;;;;;;5001451;28;269544;-70
2021/12/12 08:07:43;;;;;;;31.58;16.42;;;6.10;99.90;;;;;;5018009;28;20053;-70
2021/12/12 08:10:11;;;;;;;29.40;16.92;;;6.20;99.90;;;;;;5013768;28;265006;-70
2021/12/12 08:12:38;;;;;;;29.65;16.83;;;6.20;99.90;;;;;;5044684;28;20041;-69
2021/12/12 08:15:08;;;;;;;30.63;16.38;;;6.20;99.90;;;;;;5020292;28;262631;-70
2021/12/12 08:17:35;;;;;;;30.77;16.38;;;6.30;99.90;;;;;;5041504;28;20522;-70
2021/12/12 08:20:03;;;;;;;32.85;16.27;;;6.20;99.90;;;;;;5025436;28;261618;-70
2021/12/12 08:22:29;;;;;;;30.90;15.57;;;6.30;99.90;;;;;;5023201;28;20517;-70
2021/12/12 08:25:01;;;;;;;29.35;16.40;;;6.30;99.90;;;;;;5023133;28;261628;-70
2021/12/12 08:27:28;;;;;;;28.63;14.32;;;6.30;99.90;;;;;;5044686;28;20060;-70
2021/12/12 08:29:56;;;;;;;31.73;17.08;;;6.30;99.90;;;;;;5004832;28;73199;-69
2021/12/12 08:32:24;;;;;;;31.55;16.75;;;6.40;99.90;;;;;;5038833;28;20055;-70
2021/12/12 08:34:51;;;;;;;36.70;18.38;;;6.40;99.90;;;;;;5014305;28;74467;-70
2021/12/12 08:37:18;;;;;;;35.65;18.45;;;6.50;99.90;;;;;;5024777;28;20052;-71
2021/12/12 08:39:45;;;;;;;34.47;17.88;;;6.50;99.90;;;;;;5023560;28;251115;-71
2021/12/12 08:42:13;;;;;;;35.80;18.85;;;6.50;99.90;;;;;;5022121;28;20480;-71
2021/12/12 08:44:40;;;;;;;35.53;18.67;;;6.60;99.90;;;;;;5008169;28;81382;-72
2021/12/12 08:47:10;;;;;;;37.92;18.63;;;6.60;99.90;;;;;;5024463;28;20044;-70
2021/12/12 08:49:40;;;;;;;36.75;18.92;;;6.60;99.90;;;;;;5025953;28;251561;-70
2021/12/12 08:52:19;;;;;;;38.88;18.75;;;6.60;99.90;;;;;;5026015;28;20099;-71
2021/12/12 08:54:49;;;;;;;39.42;19.83;;;6.70;99.90;;;;;;5021955;28;276230;-72
2021/12/12 08:57:31;;;;;;;39.33;20.35;;;6.70;99.90;;;;;;5009770;28;20445;-71
2021/12/12 08:59:59;;;;;;;39.80;19.33;;;6.80;99.90;;;;;;5007610;28;97711;-71
2021/12/12 09:02:26;;;;;;;40.30;19.67;;;6.80;99.90;;;;;;5020657;28;20581;-71
2021/12/12 09:05:03;;;;;;;44.17;20.40;;;6.80;99.90;;;;;;4974855;28;251874;-71
2021/12/12 09:07:38;;;;;;;44.60;21.02;;;6.90;99.90;;;;;;5019391;28;20422;-71
2021/12/12 09:10:09;;;;;;;44.90;21.58;;;6.90;99.90;;;;;;5005075;28;268813;-71
2021/12/12 09:13:16;;;;;;;45.30;22.05;;;6.90;99.90;;;;;;5039038;28;20057;-71
2021/12/12 09:16:03;;;;;;;47.30;21.58;;;7.00;99.90;;;;;;4930385;28;101227;-72
2021/12/12 09:18:40;;;;;;;50.08;21.85;;;7.00;99.90;;;;;;4916058;28;20079;-71
2021/12/12 09:21:14;;;;;;;49.33;21.52;;;7.00;99.90;;;;;;4925651;29;20054;-72
2021/12/12 09:23:46;;;;;;;48.17;22.45;;;7.10;99.90;;;;;;4905893;28;81122;-71
2021/12/12 09:26:18;;;;;;;59.28;24.00;;;7.10;99.90;;;;;;4929521;29;20043;-71
2021/12/12 09:28:52;;;;;;;55.78;23.45;;;7.10;99.90;;;;;;4929830;28;53707;-72
2021/12/12 09:31:25;;;;;;;55.67;23.45;;;7.20;99.90;;;;;;4929174;29;20233;-72
2021/12/12 09:33:58;;;;;;;67.30;25.65;;;7.20;99.90;;;;;;4906576;28;233129;-72
2021/12/12 09:37:00;;;;;;;65.65;24.05;;;7.20;99.90;;;;;;4942633;28;20067;-72
2021/12/12 09:39:32;;;;;;;64.75;25.30;;;7.30;99.90;;;;;;4930497;28;32518;-72
2021/12/12 09:42:07;;;;;;;66.78;25.80;;;7.30;99.90;;;;;;4938838;28;20107;-71
2021/12/12 09:44:48;;;;;;;68.75;26.15;;;7.30;99.90;;;;;;4993521;23;20057;-67
2021/12/12 09:54:13;;;;;;;75.53;28.65;;;7.50;99.90;;;;;;5002504;28;252022;-68
2021/12/12 09:57:10;;;;;;;78.30;28.10;;;7.50;99.90;;;;;;4992758;28;20085;-67
2021/12/12 09:59:58;;;;;;;70.35;27.45;;;7.50;99.90;;;;;;4982867;28;20050;-68
2021/12/12 10:02:46;;;;;;;82.03;28.30;;;7.60;99.90;;;;;;4978474;28;20401;-68
2021/12/12 10:05:48;;;;;;;71.40;29.27;;;7.60;99.90;;;;;;4978205;28;263437;-67
2021/12/12 10:08:43;;;;;;;73.65;28.73;;;7.60;99.90;;;;;;5017385;28;20304;-68
2021/12/12 10:11:33;;;;;;;63.90;25.85;;;7.70;99.90;;;;;;4977687;28;20057;-68
2021/12/12 10:14:11;;;;;;;71.03;27.45;;;7.70;99.90;;;;;;4996213;28;174032;-69
2021/12/12 10:16:49;;;;;;;77.10;28.27;;;7.70;99.90;;;;;;5018027;28;20698;-69
2021/12/12 10:19:43;;;;;;;69.45;26.70;;;7.80;99.90;;;;;;5014451;28;207010;-68
2021/12/12 10:22:39;;;;;;;67.30;25.98;;;7.80;99.90;;;;;;5012718;28;20510;-67
2021/12/12 10:25:11;;;;;;;61.42;25.60;;;7.80;99.90;;;;;;5002193;28;100342;-66
2021/12/12 10:27:43;;;;;;;61.00;25.17;;;7.80;99.90;;;;;;5009077;28;20057;-67
2021/12/12 10:30:21;;;;;;;66.82;25.70;;;7.90;99.90;;;;;;5015057;28;253334;-67
2021/12/12 10:32:56;;;;;;;66.18;25.67;;;7.90;99.90;;;;;;5025179;28;20501;-67
2021/12/12 10:35:34;;;;;;;58.72;25.05;;;8.00;99.90;;;;;;4999992;28;259068;-67
2021/12/12 10:38:18;;;;;;;56.38;25.38;;;8.00;99.90;;;;;;4993147;28;20057;-66
2021/12/12 10:40:54;;;;;;;67.57;26.38;;;8.00;99.90;;;;;;5002245;28;55191;-68
2021/12/12 10:43:30;;;;;;;59.67;24.08;;;8.10;99.90;;;;;;5019928;28;20141;-67
2021/12/12 10:46:08;;;;;;;57.13;24.20;;;8.10;99.90;;;;;;5005285;28;20041;-68
2021/12/12 10:48:56;;;;;;;60.78;24.38;;;8.10;99.90;;;;;;5006040;28;264509;-67
2021/12/12 10:51:23;;;;;;;59.55;23.73;;;8.10;99.90;;;;;;5038658;28;20414;-68
2021/12/12 10:54:05;;;;;;;59.47;24.52;;;8.10;99.90;;;;;;5007502;28;269066;-68
2021/12/12 10:56:42;;;;;;;55.20;24.38;;;8.20;99.90;;;;;;5039050;28;20058;-68
2021/12/12 10:59:23;;;;;;;58.67;23.48;;;8.20;99.90;;;;;;5014011;28;262099;-68
2021/12/12 11:01:53;;;;;;;50.00;22.38;;;8.20;99.90;;;;;;5014533;28;20133;-68
2021/12/12 11:04:47;;;;;;;52.50;22.33;;;8.20;99.90;;;;;;4990855;28;273596;-68
2021/12/12 11:07:29;;;;;;;49.63;21.95;;;8.30;99.90;;;;;;4992773;28;20084;-67
2021/12/12 11:10:11;;;;;;;53.38;22.27;;;8.30;99.90;;;;;;5000793;28;172667;-68
2021/12/12 11:12:46;;;;;;;48.13;22.48;;;8.30;99.90;;;;;;5008187;28;20499;-67
2021/12/12 11:15:21;;;;;;;47.00;21.08;;;8.30;99.90;;;;;;4988874;28;105385;-66
2021/12/12 11:17:59;;;;;;;50.22;21.63;;;8.30;99.90;;;;;;5003982;28;20488;-68
2021/12/12 11:20:37;;;;;;;42.95;20.27;;;8.30;99.90;;;;;;4989314;28;100520;-67
2021/12/12 11:23:08;;;;;;;46.95;21.08;;;8.30;99.90;;;;;;5002738;28;20062;-67
2021/12/12 11:25:54;;;;;;;42.90;20.02;;;8.40;99.90;;;;;;4991853;28;24013;-68
2021/12/12 11:28:26;;;;;;;47.80;21.98;;;8.40;99.90;;;;;;5005224;28;20127;-68
2021/12/12 11:31:16;;;;;;;47.90;21.40;;;8.50;99.90;;;;;;4995265;28;20048;-68
2021/12/12 11:33:46;;;;;;;47.65;20.17;;;8.50;99.90;;;;;;4995307;28;20057;-68
2021/12/12 11:36:15;;;;;;;46.13;20.48;;;8.50;99.90;;;;;;5013777;28;20061;-68
2021/12/12 11:38:46;;;;;;;49.53;20.92;;;8.50;99.90;;;;;;4992287;28;60755;-67
2021/12/12 11:41:49;;;;;;;45.22;20.52;;;8.50;99.90;;;;;;4993717;28;20400;-68
2021/12/12 11:44:24;;;;;;;45.72;21.92;;;8.60;99.90;;;;;;5000532;28;255540;-66
2021/12/12 11:47:05;;;;;;;50.63;23.02;;;8.50;99.90;;;;;;5027546;28;20045;-67
2021/12/12 11:50:03;;;;;;;43.90;20.17;;;8.50;99.90;;;;;;4995561;28;207648;-67
2021/12/12 11:52:50;;;;;;;51.85;22.33;;;8.60;99.90;;;;;;4993421;28;20423;-67
2021/12/12 11:55:27;;;;;;;51.88;21.90;;;8.60;99.90;;;;;;5002258;28;208547;-67
2021/12/12 11:57:59;;;;;;;58.55;23.20;;;8.70;99.90;;;;;;5008167;28;20056;-67
2021/12/12 12:00:37;;;;;;;53.38;22.95;;;8.70;99.90;;;;;;5011723;28;65407;-68
2021/12/12 12:03:24;;;;;;;52.88;23.20;;;8.70;99.90;;;;;;5010108;28;20129;-68
2021/12/12 12:06:02;;;;;;;56.97;22.75;;;8.70;99.90;;;;;;4985201;28;208704;-67
2021/12/12 12:08:45;;;;;;;54.35;21.75;;;8.70;99.90;;;;;;5004069;28;20053;-67
2021/12/12 12:11:20;;;;;;;43.97;20.67;;;8.70;99.90;;;;;;5001287;28;20201;-67
2021/12/12 12:14:09;;;;;;;45.73;21.43;;;8.70;99.90;;;;;;4993343;28;140727;-67
2021/12/12 12:16:54;;;;;;;48.20;21.48;;;8.70;99.90;;;;;;5018977;28;20038;-67
2021/12/12 12:20:01;;;;;;;59.05;22.88;;;8.70;99.90;;;;;;4988167;28;49421;-68
2021/12/12 12:22:52;;;;;;;51.38;21.55;;;8.70;99.90;;;;;;5010469;28;20057;-68
2021/12/12 12:26:50;;;;;;;;;;;8.70;99.90;;;;;;5014963;28;26049;-68
2021/12/12 12:28:43;;;;;;;52.85;21.38;;;8.70;99.90;;;;;;5012259;28;19921;-68
2021/12/12 12:31:31;;;;;;;63.63;23.17;;;8.80;99.90;;;;;;5004353;28;20513;-68
2021/12/12 12:34:22;;;;;;;63.58;23.25;;;8.80;99.90;;;;;;5003919;28;95781;-68
2021/12/12 12:37:19;;;;;;;69.03;22.52;;;8.80;99.90;;;;;;5041629;28;20061;-68
2021/12/12 12:40:21;;;;;;;79.65;24.13;;;8.80;99.90;;;;;;5007584;28;160757;-70
2021/12/12 12:43:06;;;;;;;65.45;23.33;;;8.80;99.90;;;;;;5023612;28;20054;-68
2021/12/12 12:46:10;;;;;;;68.10;23.83;;;8.80;99.90;;;;;;5031085;28;255544;-68
2021/12/12 12:48:54;;;;;;;74.05;23.60;;;8.90;99.90;;;;;;5011080;28;261360;-67
2021/12/12 12:51:42;;;;;;;57.20;22.30;;;8.90;99.90;;;;;;5038136;28;20033;-67
2021/12/12 12:54:10;;;;;;;56.95;21.08;;;9.00;99.90;;;;;;5014863;28;207554;-67
2021/12/12 12:57:09;;;;;;;52.22;20.52;;;9.00;99.90;;;;;;5042461;28;20038;-67
2021/12/12 12:59:48;;;;;;;57.88;21.88;;;9.00;99.90;;;;;;5018116;28;270840;-67
2021/12/12 13:02:18;;;;;;;58.80;22.08;;;9.10;99.90;;;;;;5020593;28;20057;-66
2021/12/12 13:04:56;;;;;;;56.47;21.23;;;9.10;99.90;;;;;;4991974;28;123083;-67
2021/12/12 13:07:40;;;;;;;53.85;20.92;;;9.10;99.90;;;;;;5034118;28;20100;-67
2021/12/12 13:10:15;;;;;;;56.65;20.95;;;9.20;99.90;;;;;;5020942;28;261989;-67
2021/12/12 13:13:09;;;;;;;63.80;20.60;;;9.20;99.90;;;;;;5015037;28;20399;-67
2021/12/12 13:15:45;;;;;;;56.85;20.40;;;9.20;99.90;;;;;;5016908;28;269492;-66
2021/12/12 13:18:20;;;;;;;54.97;20.48;;;9.20;99.90;;;;;;4991684;28;20478;-67
2021/12/12 13:21:01;;;;;;;55.58;19.90;;;9.20;99.90;;;;;;5002861;28;271690;-67
2021/12/12 13:23:32;;;;;;;51.78;19.38;;;9.20;99.90;;;;;;5021470;28;20064;-67
2021/12/12 13:26:04;;;;;;;50.88;19.77;;;9.30;99.90;;;;;;4978872;28;20415;-69
2021/12/12 13:28:47;;;;;;;59.63;19.17;;;9.30;99.90;;;;;;5008644;28;257032;-67
2021/12/12 13:31:22;;;;;;;51.97;18.98;;;9.30;99.90;;;;;;5019271;28;20050;-67
2021/12/12 13:34:11;;;;;;;53.25;19.17;;;9.30;99.90;;;;;;5004915;28;253782;-67